Time;durP1;ratioP1;P1;durP2;ratioP2;P2;SDS_P1;SDS_P2;PMS_P1;PMS_P2;Temp;Humidity;BMP_temperature;BMP_pressure;BME280_temperature;BME280_humidity;BME280_pressure;Samples;Min_cycle;Max_cycle;Signal;HPM_P1;HPM_P2
2022/04/20 00:01:43;;;;;;;7.82;4.15;;;7.80;99.90;;;;;;5059450;28;20048;-83
2022/04/20 00:04:10;;;;;;;8.85;4.10;;;7.80;99.90;;;;;;5078442;28;20102;-83
2022/04/20 00:06:37;;;;;;;8.32;4.55;;;7.80;99.90;;;;;;5042888;28;20048;-84
2022/04/20 00:09:02;;;;;;;8.07;4.25;;;7.70;99.90;;;;;;5077336;28;20132;-83
2022/04/20 00:11:28;;;;;;;7.13;3.70;;;7.70;99.90;;;;;;5059118;28;20068;-84
2022/04/20 00:13:54;;;;;;;8.38;3.97;;;7.70;99.90;;;;;;5059193;28;20044;-83
2022/04/20 00:16:19;;;;;;;9.43;3.95;;;8.20;99.90;;;;;;5042650;28;20052;-83
2022/04/20 00:18:45;;;;;;;7.45;3.90;;;7.60;99.90;;;;;;5059000;28;20045;-83
2022/04/20 00:21:11;;;;;;;6.43;3.95;;;7.70;99.90;;;;;;5042275;28;20123;-84
2022/04/20 00:23:36;;;;;;;8.45;4.60;;;7.60;99.90;;;;;;5076729;28;20049;-83
2022/04/20 00:26:02;;;;;;;6.55;3.65;;;7.60;99.90;;;;;;5042261;28;20049;-83
2022/04/20 00:28:27;;;;;;;6.60;3.35;;;7.50;99.90;;;;;;5041788;28;20407;-83
2022/04/20 00:30:53;;;;;;;11.70;3.92;;;7.50;99.90;;;;;;5058809;28;20048;-84
2022/04/20 00:33:19;;;;;;;7.40;4.00;;;7.50;99.90;;;;;;5057975;28;20076;-83
2022/04/20 00:35:45;;;;;;;7.63;4.22;;;8.10;99.90;;;;;;5042130;28;20075;-83
2022/04/20 00:38:11;;;;;;;8.27;3.80;;;7.60;99.90;;;;;;5060314;28;20037;-83
2022/04/20 00:40:37;;;;;;;7.70;3.78;;;7.40;99.90;;;;;;5066618;28;20075;-83
2022/04/20 00:43:03;;;;;;;7.38;4.07;;;7.40;99.90;;;;;;5042900;28;20052;-83
2022/04/20 00:45:30;;;;;;;7.72;3.90;;;7.30;99.90;;;;;;5061478;28;20041;-83
2022/04/20 00:47:56;;;;;;;7.07;4.00;;;7.40;99.90;;;;;;5059062;28;20040;-83
2022/04/20 00:50:23;;;;;;;7.85;3.95;;;7.30;99.90;;;;;;5076082;28;20048;-85
2022/04/20 00:52:48;;;;;;;6.63;3.70;;;7.40;99.90;;;;;;5041343;28;20060;-83
2022/04/20 00:55:14;;;;;;;6.18;3.65;;;7.20;99.90;;;;;;5075748;28;20084;-84
2022/04/20 00:57:40;;;;;;;10.10;4.07;;;7.10;99.90;;;;;;5058830;28;20045;-86
2022/04/20 01:00:07;;;;;;;7.95;3.53;;;7.10;99.90;;;;;;5077396;28;20056;-83
2022/04/20 01:02:32;;;;;;;5.65;3.53;;;7.10;99.90;;;;;;5066696;28;20040;-83
2022/04/20 01:04:58;;;;;;;6.80;3.65;;;7.10;99.90;;;;;;5043640;28;20044;-84
2022/04/20 01:07:23;;;;;;;7.18;3.83;;;7.00;99.90;;;;;;5076866;28;20040;-83
2022/04/20 01:09:49;;;;;;;6.40;4.00;;;7.40;99.90;;;;;;5076410;28;20549;-83
2022/04/20 01:12:17;;;;;;;8.43;4.00;;;6.90;99.90;;;;;;5076243;28;20522;-83
2022/04/20 01:14:43;;;;;;;7.07;3.53;;;6.90;99.90;;;;;;5062148;28;20044;-83
2022/04/20 01:17:09;;;;;;;7.00;4.03;;;7.10;99.90;;;;;;5059492;28;20101;-83
2022/04/20 01:19:38;;;;;;;6.80;3.90;;;6.90;99.90;;;;;;5041558;28;20082;-84
2022/04/20 01:22:05;;;;;;;5.97;3.45;;;6.90;99.90;;;;;;5057734;28;20040;-83
2022/04/20 01:24:31;;;;;;;6.60;3.30;;;6.90;99.90;;;;;;5058750;28;20044;-83
2022/04/20 01:26:57;;;;;;;8.38;3.67;;;6.90;99.90;;;;;;5082227;28;20039;-83
2022/04/20 01:29:25;;;;;;;7.97;3.90;;;6.90;99.90;;;;;;5058707;28;20383;-83
2022/04/20 01:31:51;;;;;;;7.47;3.90;;;6.80;99.90;;;;;;5042051;28;20051;-83
2022/04/20 01:34:16;;;;;;;7.00;3.85;;;6.90;99.90;;;;;;5058934;28;20044;-83
2022/04/20 01:36:42;;;;;;;7.47;3.90;;;6.80;99.90;;;;;;5057982;28;20548;-84
2022/04/20 01:39:08;;;;;;;7.20;3.90;;;7.50;99.90;;;;;;5057495;28;20033;-86
2022/04/20 01:41:33;;;;;;;7.13;4.32;;;6.80;99.90;;;;;;5062130;28;20052;-84
2022/04/20 01:43:59;;;;;;;5.75;3.60;;;6.70;99.90;;;;;;5057228;28;20079;-83
2022/04/20 01:46:24;;;;;;;7.70;3.92;;;6.70;99.90;;;;;;5057315;28;20461;-83
2022/04/20 01:48:50;;;;;;;7.93;4.20;;;6.70;99.90;;;;;;5057424;28;20048;-83
2022/04/20 01:54:00;;;;;;;7.63;3.80;;;6.70;99.90;;;;;;5057010;28;20053;-85
2022/04/20 01:56:25;;;;;;;7.38;4.45;;;6.70;99.90;;;;;;5057244;28;20511;-84
2022/04/20 01:58:51;;;;;;;9.60;4.40;;;6.70;99.90;;;;;;5057806;28;20056;-83
2022/04/20 02:04:01;;;;;;;11.15;4.22;;;6.60;99.90;;;;;;5075725;28;20048;-83
2022/04/20 02:06:26;;;;;;;7.75;4.20;;;6.60;99.90;;;;;;5057293;28;20082;-83
2022/04/20 02:08:52;;;;;;;7.60;4.53;;;6.60;99.90;;;;;;5075845;28;20051;-83
2022/04/20 02:11:17;;;;;;;6.75;4.18;;;6.60;99.90;;;;;;5075111;28;20037;-83
2022/04/20 02:13:43;;;;;;;9.52;4.35;;;6.50;99.90;;;;;;5074927;28;20036;-83
2022/04/20 02:16:09;;;;;;;8.32;3.95;;;6.50;99.90;;;;;;5075107;28;20040;-83
2022/04/20 02:18:34;;;;;;;8.88;4.20;;;6.40;99.90;;;;;;5056734;28;20450;-83
2022/04/20 02:21:00;;;;;;;7.35;3.90;;;6.40;99.90;;;;;;5075361;28;20051;-84
2022/04/20 02:23:26;;;;;;;8.50;4.15;;;6.40;99.90;;;;;;5056758;28;20446;-84
2022/04/20 02:25:52;;;;;;;7.75;4.80;;;6.40;99.90;;;;;;5041090;28;20094;-83
2022/04/20 02:28:18;;;;;;;8.13;4.15;;;6.30;99.90;;;;;;5075673;28;20199;-83
2022/04/20 02:30:44;;;;;;;8.10;4.07;;;6.30;99.90;;;;;;5057735;28;20131;-83
2022/04/20 02:33:10;;;;;;;11.13;4.63;;;6.30;99.90;;;;;;5057278;28;20132;-83
2022/04/20 02:35:36;;;;;;;8.32;4.30;;;6.30;99.90;;;;;;5075273;28;20075;-83
2022/04/20 02:38:03;;;;;;;7.90;4.70;;;6.20;99.90;;;;;;5057517;28;20036;-83
2022/04/20 02:40:30;;;;;;;6.95;4.25;;;6.20;99.90;;;;;;5076277;28;20115;-83
2022/04/20 02:42:57;;;;;;;9.20;4.90;;;6.20;99.90;;;;;;5075539;28;20043;-83
2022/04/20 02:45:22;;;;;;;8.20;4.65;;;6.20;99.90;;;;;;5057523;28;20418;-83
2022/04/20 02:47:49;;;;;;;10.00;5.10;;;6.20;99.90;;;;;;5040651;28;20066;-83
2022/04/20 02:50:14;;;;;;;7.82;4.47;;;6.10;99.90;;;;;;5056929;28;20049;-84
2022/04/20 02:52:40;;;;;;;7.43;4.40;;;6.10;99.90;;;;;;5074345;28;20090;-85
2022/04/20 02:55:06;;;;;;;11.48;4.88;;;6.10;99.90;;;;;;5074635;28;20372;-84
2022/04/20 02:57:32;;;;;;;10.48;4.88;;;6.10;99.90;;;;;;5056411;28;20047;-83
2022/04/20 02:59:57;;;;;;;9.05;4.30;;;6.10;99.90;;;;;;5075108;28;20060;-83
2022/04/20 03:02:23;;;;;;;9.05;4.35;;;6.00;99.90;;;;;;5038748;28;20480;-83
2022/04/20 03:04:48;;;;;;;10.35;4.60;;;6.00;99.90;;;;;;5073412;28;20063;-83
2022/04/20 03:07:14;;;;;;;10.10;5.00;;;6.00;99.90;;;;;;5055524;28;20044;-83
2022/04/20 03:09:40;;;;;;;8.98;4.68;;;6.00;99.90;;;;;;5054984;28;20468;-83
2022/04/20 03:12:06;;;;;;;8.05;4.40;;;6.00;99.90;;;;;;5073871;28;20083;-83
2022/04/20 03:14:31;;;;;;;9.45;5.10;;;5.90;99.90;;;;;;5073448;28;20041;-83
2022/04/20 03:16:57;;;;;;;8.85;5.20;;;6.00;99.90;;;;;;5055178;28;20053;-83
2022/04/20 03:19:23;;;;;;;8.55;4.40;;;5.90;99.90;;;;;;5038556;28;20523;-83
2022/04/20 03:21:48;;;;;;;9.60;5.00;;;5.90;99.90;;;;;;5055277;28;20182;-83
2022/04/20 03:24:14;;;;;;;8.23;5.10;;;5.90;99.90;;;;;;5055153;28;20127;-83
2022/04/20 03:26:39;;;;;;;9.75;4.95;;;5.80;99.90;;;;;;5076191;28;20033;-83
2022/04/20 03:29:05;;;;;;;9.23;4.80;;;5.80;99.90;;;;;;5076861;28;20547;-83
2022/04/20 03:31:34;;;;;;;10.73;5.18;;;5.80;99.90;;;;;;5076728;28;20146;-83
2022/04/20 03:34:01;;;;;;;9.57;5.05;;;5.70;99.90;;;;;;5042179;28;20109;-83
2022/04/20 03:36:27;;;;;;;11.23;4.95;;;5.70;99.90;;;;;;5076791;28;20048;-83
2022/04/20 03:38:53;;;;;;;10.40;5.30;;;5.70;99.90;;;;;;5076731;28;20044;-83
2022/04/20 03:41:18;;;;;;;10.73;5.05;;;5.70;99.90;;;;;;5059224;28;20044;-83
2022/04/20 03:43:45;;;;;;;9.50;4.63;;;5.70;99.90;;;;;;5041917;28;20076;-83
2022/04/20 03:46:11;;;;;;;9.98;5.00;;;5.60;99.90;;;;;;5058669;28;20392;-83
2022/04/20 03:48:37;;;;;;;11.80;5.18;;;5.60;99.90;;;;;;5041549;28;20090;-83
2022/04/20 03:51:03;;;;;;;9.13;4.82;;;5.60;99.90;;;;;;5076660;28;20491;-83
2022/04/20 03:53:28;;;;;;;8.93;4.90;;;5.60;99.90;;;;;;5076372;28;20036;-83
2022/04/20 03:55:54;;;;;;;10.02;5.05;;;5.60;99.90;;;;;;5076333;28;20047;-83
2022/04/20 03:58:20;;;;;;;9.80;5.10;;;5.50;99.90;;;;;;5057955;28;20082;-83
2022/04/20 04:00:46;;;;;;;9.05;4.82;;;5.60;99.90;;;;;;5058279;28;20052;-83
2022/04/20 04:03:12;;;;;;;9.57;5.10;;;5.50;99.90;;;;;;5041599;28;20573;-83
2022/04/20 04:05:37;;;;;;;8.40;4.75;;;5.40;99.90;;;;;;5041622;28;20055;-83
2022/04/20 04:08:03;;;;;;;9.30;4.53;;;5.50;99.90;;;;;;5076034;28;20083;-83
2022/04/20 04:10:29;;;;;;;10.00;5.13;;;5.40;99.90;;;;;;5058187;28;20079;-83
2022/04/20 04:12:55;;;;;;;8.73;5.03;;;5.40;99.90;;;;;;5057834;28;20087;-83
2022/04/20 04:15:21;;;;;;;9.52;5.00;;;5.40;99.90;;;;;;5057936;28;20123;-83
2022/04/20 04:17:54;;;;;;;9.43;5.03;;;5.40;99.90;;;;;;5075920;28;20048;-83
2022/04/20 04:20:22;;;;;;;8.93;4.97;;;5.40;99.90;;;;;;5057834;28;20052;-83
2022/04/20 04:22:50;;;;;;;11.02;5.70;;;5.40;99.90;;;;;;5058129;28;20186;-83
2022/04/20 04:25:16;;;;;;;10.43;5.15;;;5.40;99.90;;;;;;5075920;28;20402;-83
2022/04/20 04:27:42;;;;;;;11.98;5.05;;;5.40;99.90;;;;;;5041167;28;20047;-83
2022/04/20 04:30:08;;;;;;;8.23;4.88;;;5.40;99.90;;;;;;5057929;28;20044;-83
2022/04/20 04:32:34;;;;;;;9.98;5.30;;;5.30;99.90;;;;;;5076049;28;20044;-83
2022/04/20 04:35:01;;;;;;;11.82;5.22;;;5.30;99.90;;;;;;5075707;28;20036;-83
2022/04/20 04:37:27;;;;;;;10.80;5.10;;;5.30;99.90;;;;;;5057545;28;20087;-83
2022/04/20 04:39:52;;;;;;;12.13;5.20;;;5.30;99.90;;;;;;5076005;28;20048;-83
2022/04/20 04:42:19;;;;;;;9.80;4.95;;;5.30;99.90;;;;;;5075713;28;20043;-83
2022/04/20 04:44:44;;;;;;;10.43;5.22;;;5.30;99.90;;;;;;5075572;28;20408;-83
2022/04/20 04:49:55;;;;;;;9.77;5.13;;;5.30;99.90;;;;;;5075519;28;20045;-83
2022/04/20 04:52:20;;;;;;;10.15;5.00;;;5.40;99.90;;;;;;5040244;28;20090;-83
2022/04/20 04:54:46;;;;;;;8.38;5.20;;;5.30;99.90;;;;;;5075222;28;20044;-83
2022/04/20 04:57:12;;;;;;;8.23;4.70;;;5.30;99.90;;;;;;5056949;28;20439;-83
2022/04/20 04:59:42;;;;;;;11.68;5.57;;;5.40;99.90;;;;;;5040203;28;20048;-83
2022/04/20 05:02:09;;;;;;;9.00;5.03;;;5.40;99.90;;;;;;5057188;28;20400;-83
2022/04/20 05:04:36;;;;;;;8.05;4.88;;;5.30;99.90;;;;;;5075161;28;20044;-83
2022/04/20 05:07:03;;;;;;;10.48;5.53;;;5.40;99.90;;;;;;5075162;28;20045;-83
2022/04/20 05:09:28;;;;;;;9.48;4.93;;;5.40;99.90;;;;;;5056889;28;20049;-83
2022/04/20 05:11:54;;;;;;;9.70;5.18;;;5.40;99.90;;;;;;5074910;28;20556;-83
2022/04/20 05:14:20;;;;;;;10.80;5.13;;;5.40;99.90;;;;;;5075002;28;20127;-83
2022/04/20 05:16:45;;;;;;;8.40;4.65;;;5.40;99.90;;;;;;5074841;28;20044;-83
2022/04/20 05:19:11;;;;;;;10.07;5.13;;;5.40;99.90;;;;;;5056785;28;20032;-83
2022/04/20 05:21:37;;;;;;;9.02;4.85;;;5.50;99.90;;;;;;5074778;28;20048;-83
2022/04/20 05:24:03;;;;;;;8.95;4.78;;;5.50;99.90;;;;;;5066615;28;20048;-83
2022/04/20 05:26:28;;;;;;;7.75;4.68;;;5.60;99.90;;;;;;5056865;28;20040;-83
2022/04/20 05:28:54;;;;;;;7.57;4.45;;;5.60;99.90;;;;;;5057046;28;20135;-83
2022/04/20 05:31:20;;;;;;;11.60;5.38;;;5.70;99.90;;;;;;5056832;28;20094;-83
2022/04/20 05:33:45;;;;;;;9.05;5.20;;;5.70;99.90;;;;;;5075011;28;20139;-83
2022/04/20 05:36:12;;;;;;;9.70;5.00;;;6.00;99.90;;;;;;5057083;28;20044;-83
2022/04/20 05:41:40;;;;;;;9.27;5.00;;;5.90;99.90;;;;;;5075053;28;20576;-83
2022/04/20 05:44:11;;;;;;;9.02;4.93;;;6.00;99.90;;;;;;5056906;28;20053;-83
2022/04/20 05:46:37;;;;;;;10.38;5.03;;;6.10;99.90;;;;;;5068507;28;20037;-83
2022/04/20 05:49:03;;;;;;;9.40;4.95;;;6.20;99.90;;;;;;5056523;28;20048;-83
2022/04/20 05:51:29;;;;;;;8.68;5.20;;;6.30;99.90;;;;;;5056649;28;20076;-83
2022/04/20 05:53:55;;;;;;;7.78;4.32;;;6.40;99.90;;;;;;5056307;28;20086;-83
2022/04/20 05:56:21;;;;;;;10.25;5.07;;;6.50;99.90;;;;;;5074504;28;20044;-83
2022/04/20 05:58:50;;;;;;;8.48;4.80;;;6.60;99.90;;;;;;5073961;28;20052;-84
2022/04/20 06:01:16;;;;;;;7.78;4.63;;;6.70;99.90;;;;;;5056472;28;20059;-83
2022/04/20 06:03:42;;;;;;;8.38;4.50;;;6.80;99.90;;;;;;5074407;28;20044;-83
2022/04/20 06:06:08;;;;;;;12.43;4.65;;;6.90;99.90;;;;;;5074836;28;20123;-83
2022/04/20 06:08:34;;;;;;;9.70;4.63;;;7.00;99.90;;;;;;5039844;28;20048;-83
2022/04/20 06:11:00;;;;;;;7.25;4.47;;;7.10;99.90;;;;;;5039351;28;20422;-83
2022/04/20 06:13:27;;;;;;;8.23;4.97;;;7.40;99.90;;;;;;5039384;28;20044;-83
2022/04/20 06:15:54;;;;;;;8.85;5.00;;;7.20;99.90;;;;;;5056309;28;20372;-83
2022/04/20 06:18:20;;;;;;;12.27;5.05;;;7.30;99.90;;;;;;5056065;28;20052;-83
2022/04/20 06:20:46;;;;;;;8.85;4.90;;;7.40;99.90;;;;;;5055479;28;20131;-83
2022/04/20 06:23:11;;;;;;;7.72;4.50;;;7.60;99.90;;;;;;5055576;28;20123;-83
2022/04/20 06:25:37;;;;;;;8.23;4.53;;;7.60;99.90;;;;;;5056357;28;20094;-83
2022/04/20 06:28:03;;;;;;;7.95;4.80;;;7.70;99.90;;;;;;5076310;28;20054;-83
2022/04/20 06:30:29;;;;;;;8.02;4.18;;;7.80;99.90;;;;;;5075363;28;20072;-83
2022/04/20 06:32:55;;;;;;;8.13;4.35;;;7.90;99.90;;;;;;5073847;28;20075;-83
2022/04/20 06:35:20;;;;;;;8.85;4.45;;;7.90;99.90;;;;;;5073937;28;20036;-83
2022/04/20 06:37:47;;;;;;;7.10;4.30;;;8.30;99.90;;;;;;5074108;28;20051;-83
2022/04/20 06:40:12;;;;;;;8.60;4.32;;;8.10;99.90;;;;;;5074304;28;20055;-83
2022/04/20 06:42:39;;;;;;;7.40;3.88;;;8.20;99.90;;;;;;5055874;28;20400;-83
2022/04/20 06:45:05;;;;;;;7.07;3.90;;;8.50;99.90;;;;;;5055666;28;20041;-83
2022/04/20 06:47:33;;;;;;;7.53;4.55;;;8.40;99.90;;;;;;5073924;28;20044;-83
2022/04/20 06:49:59;;;;;;;7.40;4.30;;;8.50;99.90;;;;;;5059601;28;20045;-83
2022/04/20 07:00:37;;;;;;;8.55;4.40;;;8.90;99.90;;;;;;5056744;28;20048;-83
2022/04/20 07:03:08;;;;;;;6.20;3.83;;;9.00;99.90;;;;;;5078191;28;20048;-83
2022/04/20 07:05:35;;;;;;;7.20;4.00;;;9.20;99.90;;;;;;5077744;28;20041;-83
2022/04/20 07:08:01;;;;;;;7.00;4.00;;;9.10;99.90;;;;;;5059413;28;20048;-83
2022/04/20 07:10:27;;;;;;;7.68;3.95;;;9.20;99.90;;;;;;5059204;28;20080;-83
2022/04/20 07:12:52;;;;;;;7.15;3.75;;;9.40;99.90;;;;;;5059356;28;20444;-83
2022/04/20 07:15:19;;;;;;;6.55;3.50;;;9.80;99.90;;;;;;5077102;28;20086;-83
2022/04/20 07:17:45;;;;;;;5.60;3.67;;;9.50;99.90;;;;;;5062099;28;20060;-83
2022/04/20 07:20:17;;;;;;;6.20;3.85;;;9.60;99.90;;;;;;5078881;28;20456;-83
2022/04/20 07:22:54;;;;;;;7.15;3.40;;;9.60;99.90;;;;;;5077723;28;20052;-83
2022/04/20 07:25:20;;;;;;;5.43;3.28;;;9.70;99.90;;;;;;5077767;28;20052;-83
2022/04/20 07:27:47;;;;;;;5.30;3.40;;;9.90;99.90;;;;;;5060735;28;20044;-83
2022/04/20 07:30:13;;;;;;;5.70;3.55;;;10.00;99.90;;;;;;5059010;28;20123;-83
2022/04/20 07:32:38;;;;;;;5.32;3.40;;;10.10;99.90;;;;;;5059883;28;20079;-83
2022/04/20 07:35:04;;;;;;;6.47;3.40;;;10.20;99.90;;;;;;5058696;28;20075;-83
2022/04/20 07:37:31;;;;;;;5.55;3.28;;;10.30;99.90;;;;;;5076913;28;20403;-83
2022/04/20 07:39:57;;;;;;;6.22;3.00;;;10.40;99.90;;;;;;5058655;28;20127;-83
2022/04/20 07:42:23;;;;;;;6.78;3.05;;;10.50;99.90;;;;;;5058715;28;20132;-83
2022/04/20 07:44:49;;;;;;;5.65;3.38;;;10.70;99.90;;;;;;5076441;28;20103;-83
2022/04/20 07:47:15;;;;;;;4.80;2.90;;;10.70;99.90;;;;;;5076621;28;20511;-83
2022/04/20 07:50:24;;;;;;;5.47;2.95;;;10.80;99.90;;;;;;5041662;28;20045;-83
2022/04/20 07:52:36;;;;;;;4.43;2.88;;;11.00;99.90;;;;;;5052888;28;20055;-83
2022/04/20 07:55:18;;;;;;;6.43;3.33;;;11.20;99.90;;;;;;5058453;28;20048;-84
2022/04/20 07:57:45;;;;;;;5.85;3.30;;;11.10;99.90;;;;;;5076255;28;20048;-84
2022/04/20 08:00:13;;;;;;;5.90;3.13;;;11.30;99.90;;;;;;5058099;28;20098;-83
2022/04/20 08:02:39;;;;;;;6.25;3.08;;;11.40;99.90;;;;;;5058326;28;20085;-83
2022/04/20 08:05:06;;;;;;;4.57;2.97;;;11.60;99.90;;;;;;5058083;28;20044;-83
2022/04/20 08:07:32;;;;;;;5.15;2.80;;;11.70;99.90;;;;;;5041557;28;20044;-83
2022/04/20 08:09:57;;;;;;;6.60;3.00;;;11.60;99.90;;;;;;5076148;28;20060;-83
2022/04/20 08:12:24;;;;;;;5.53;2.88;;;11.80;99.90;;;;;;5058010;28;20396;-83
2022/04/20 08:14:51;;;;;;;5.32;3.00;;;12.00;99.90;;;;;;5057691;28;20084;-83
2022/04/20 08:17:17;;;;;;;5.10;2.97;;;12.00;99.90;;;;;;5057741;28;20131;-83
2022/04/20 08:19:43;;;;;;;5.03;3.05;;;12.50;99.90;;;;;;5058180;28;20049;-83
2022/04/20 08:22:08;;;;;;;5.18;2.50;;;12.20;99.90;;;;;;5057994;28;20040;-83
2022/04/20 08:24:34;;;;;;;4.13;2.72;;;12.40;99.90;;;;;;5057766;28;20088;-83
2022/04/20 08:27:02;;;;;;;3.50;2.35;;;12.30;99.90;;;;;;5057686;28;20040;-83
2022/04/20 08:29:27;;;;;;;4.72;2.63;;;12.30;99.90;;;;;;5076172;28;20040;-84
2022/04/20 08:31:53;;;;;;;5.60;2.65;;;12.30;99.90;;;;;;5057544;28;20377;-84
2022/04/20 08:34:18;;;;;;;4.03;2.20;;;12.30;99.90;;;;;;5057564;28;20044;-84
2022/04/20 08:36:44;;;;;;;4.40;2.25;;;12.50;99.90;;;;;;5057713;28;20109;-83
2022/04/20 08:39:10;;;;;;;5.20;1.98;;;12.60;99.90;;;;;;5057658;28;20119;-83
2022/04/20 08:41:36;;;;;;;3.55;2.15;;;12.50;99.90;;;;;;5057453;28;20433;-84
2022/04/20 08:44:04;;;;;;;4.93;2.40;;;12.70;99.90;;;;;;5075222;28;20484;-83
2022/04/20 08:46:37;;;;;;;5.03;2.40;;;12.70;99.90;;;;;;5057063;28;20040;-83
2022/04/20 08:49:04;;;;;;;2.92;1.95;;;12.90;99.90;;;;;;5075421;28;20045;-84
2022/04/20 08:52:37;;;;;;;4.72;2.30;;;13.00;99.90;;;;;;5057400;28;20101;-84
2022/04/20 08:54:19;;;;;;;3.28;2.25;;;13.10;99.90;;;;;;5057108;28;20085;-84
2022/04/20 08:59:31;;;;;;;4.78;2.28;;;13.20;99.90;;;;;;5056710;28;20381;-84
2022/04/20 09:01:59;;;;;;;3.55;1.95;;;13.20;98.90;;;;;;5056968;28;20135;-83
2022/04/20 09:04:25;;;;;;;2.88;1.70;;;13.30;97.20;;;;;;5040582;28;20434;-83
2022/04/20 09:06:51;;;;;;;3.08;1.75;;;13.30;97.30;;;;;;5056973;28;20048;-84
2022/04/20 09:09:18;;;;;;;3.58;2.10;;;13.50;98.70;;;;;;5056994;28;20119;-84
2022/04/20 09:11:46;;;;;;;3.08;1.75;;;13.60;97.80;;;;;;5074951;28;20123;-84
2022/04/20 09:14:13;;;;;;;3.17;1.60;;;13.70;93.90;;;;;;5056701;28;20555;-83
2022/04/20 09:16:39;;;;;;;4.68;1.63;;;13.70;93.70;;;;;;5056654;28;20131;-84
2022/04/20 09:19:06;;;;;;;3.38;1.83;;;13.80;93.70;;;;;;5074621;28;20124;-84
2022/04/20 09:21:34;;;;;;;3.88;1.83;;;13.70;91.60;;;;;;5074748;28;20078;-84
2022/04/20 09:24:09;;;;;;;2.88;1.50;;;13.90;92.40;;;;;;5074317;28;20115;-84
2022/04/20 09:26:53;;;;;;;4.18;1.80;;;13.90;88.30;;;;;;5056423;28;20041;-84
2022/04/20 09:29:18;;;;;;;2.83;1.50;;;14.00;88.90;;;;;;5056342;28;20131;-84
2022/04/20 09:31:52;;;;;;;3.65;1.40;;;14.00;90.30;;;;;;5056594;28;20132;-84
2022/04/20 09:34:53;;;;;;;4.32;1.30;;;14.20;85.60;;;;;;5056401;28;20066;-84
2022/04/20 09:37:21;;;;;;;2.95;1.40;;;14.20;84.90;;;;;;5056119;28;20055;-84
2022/04/20 09:39:50;;;;;;;4.13;1.70;;;14.20;87.90;;;;;;5085351;28;20414;-83
2022/04/20 09:42:16;;;;;;;2.88;1.52;;;14.30;88.10;;;;;;5083754;28;20158;-84
2022/04/20 09:44:59;;;;;;;4.13;1.80;;;14.50;84.10;;;;;;5076874;28;20131;-84
2022/04/20 09:50:13;;;;;;;2.53;1.40;;;14.70;81.50;;;;;;5076300;28;20062;-84
2022/04/20 09:52:41;;;;;;;3.17;1.35;;;14.60;80.00;;;;;;5059332;28;20036;-84
2022/04/20 09:55:10;;;;;;;6.22;1.60;;;14.80;81.70;;;;;;5076013;28;20471;-84
2022/04/20 09:57:37;;;;;;;2.60;1.40;;;14.80;81.20;;;;;;5075983;28;20058;-84
2022/04/20 10:00:10;;;;;;;2.90;1.30;;;14.90;80.20;;;;;;5075808;28;20525;-84
2022/04/20 10:02:54;;;;;;;3.78;1.30;;;15.00;77.30;;;;;;5094408;28;20093;-84
2022/04/20 10:05:22;;;;;;;2.45;1.38;;;15.00;73.20;;;;;;5094253;28;20434;-84
2022/04/20 10:07:48;;;;;;;3.85;1.27;;;15.00;74.20;;;;;;5094299;28;20040;-83
2022/04/20 10:10:14;;;;;;;3.10;1.73;;;15.20;74.90;;;;;;5075699;28;20054;-84
2022/04/20 10:12:42;;;;;;;3.30;1.00;;;15.20;74.90;;;;;;5079627;28;20051;-84
2022/04/20 10:17:56;;;;;;;2.78;1.10;;;15.30;71.30;;;;;;5075816;28;20073;-84
2022/04/20 10:20:26;;;;;;;3.05;1.30;;;15.50;72.70;;;;;;5076524;28;20482;-84
2022/04/20 10:22:54;;;;;;;2.95;1.42;;;15.50;71.00;;;;;;5075499;28;20069;-84
2022/04/20 10:25:20;;;;;;;2.72;1.20;;;15.50;69.80;;;;;;5075626;28;20040;-84
2022/04/20 10:27:58;;;;;;;3.17;1.27;;;15.50;70.50;;;;;;5075819;28;20043;-84
2022/04/20 10:31:04;;;;;;;2.65;1.30;;;15.60;68.10;;;;;;5093756;28;20047;-84
2022/04/20 10:33:33;;;;;;;4.22;1.38;;;15.70;68.30;;;;;;5051448;28;20052;-83
2022/04/20 10:36:04;;;;;;;2.50;1.15;;;16.00;72.10;;;;;;5034632;28;20171;-83
2022/04/20 10:38:32;;;;;;;3.53;1.17;;;16.20;70.10;;;;;;5025581;28;20057;-84
2022/04/20 10:41:17;;;;;;;3.08;1.13;;;16.20;68.90;;;;;;5034592;28;20049;-83
2022/04/20 10:43:43;;;;;;;;;;;16.30;68.60;;;;;;5034983;28;20052;-84
2022/04/20 10:46:11;;;;;;;2.88;1.23;;;16.50;68.30;;;;;;5034334;28;19932;-84
2022/04/20 10:48:58;;;;;;;3.17;1.20;;;16.60;68.90;;;;;;5034489;28;20133;-84
2022/04/20 10:51:30;;;;;;;2.72;1.05;;;16.80;69.20;;;;;;5034323;28;20511;-84
2022/04/20 10:54:25;;;;;;;3.17;1.20;;;17.00;71.00;;;;;;5051345;28;20527;-84
2022/04/20 10:57:12;;;;;;;3.60;1.10;;;17.00;63.60;;;;;;5034109;28;20069;-84
2022/04/20 10:59:39;;;;;;;2.33;1.05;;;17.20;67.00;;;;;;5050814;28;20436;-84
2022/04/20 11:02:07;;;;;;;2.20;1.23;;;17.30;68.10;;;;;;5034253;28;20049;-84
2022/04/20 11:04:50;;;;;;;2.30;1.10;;;17.10;66.30;;;;;;5034272;28;20090;-84
2022/04/20 11:07:26;;;;;;;2.95;1.20;;;17.20;65.00;;;;;;5034551;28;20538;-84
2022/04/20 11:10:05;;;;;;;5.70;1.20;;;17.40;68.70;;;;;;5042565;28;20123;-84
2022/04/20 11:18:39;;;;;;;2.70;1.20;;;17.40;61.50;;;;;;5093518;28;20076;-84
2022/04/20 11:21:05;;;;;;;1.90;1.08;;;17.60;64.10;;;;;;5075560;28;20395;-84
2022/04/20 11:23:53;;;;;;;2.17;0.98;;;17.70;64.00;;;;;;5075383;28;20055;-84
2022/04/20 11:26:25;;;;;;;3.55;1.08;;;17.90;62.30;;;;;;5075289;28;20048;-88
2022/04/20 11:29:00;;;;;;;2.35;1.20;;;18.00;65.40;;;;;;5075002;28;20052;-87
2022/04/20 11:31:27;;;;;;;2.22;1.08;;;18.10;63.80;;;;;;5075296;28;20052;-88
2022/04/20 11:33:53;;;;;;;2.15;1.20;;;18.10;64.30;;;;;;5074791;28;20044;-87
2022/04/20 11:36:19;;;;;;;2.55;1.30;;;18.10;62.40;;;;;;5074875;28;20044;-84
2022/04/20 11:38:50;;;;;;;3.72;1.20;;;18.10;63.50;;;;;;5080728;28;20184;-84
2022/04/20 11:41:16;;;;;;;2.38;1.20;;;18.20;64.20;;;;;;5076225;28;20044;-85
2022/04/20 11:43:42;;;;;;;2.65;1.20;;;18.30;63.50;;;;;;5093635;28;20048;-85
2022/04/20 11:46:09;;;;;;;3.22;1.30;;;18.40;64.20;;;;;;5075412;28;20047;-87
2022/04/20 11:48:35;;;;;;;2.83;1.30;;;18.40;64.30;;;;;;5078445;28;20534;-86
2022/04/20 11:51:03;;;;;;;2.55;1.20;;;18.60;64.30;;;;;;5078388;28;20131;-86
2022/04/20 11:53:36;;;;;;;2.10;1.23;;;18.70;63.30;;;;;;5078609;28;20058;-86
2022/04/20 11:56:04;;;;;;;2.72;1.48;;;18.80;64.80;;;;;;5083059;28;20047;-85
2022/04/20 11:58:30;;;;;;;3.00;1.50;;;18.80;63.50;;;;;;5099065;28;20056;-86
2022/04/20 12:01:04;;;;;;;3.35;1.38;;;18.80;63.40;;;;;;5078760;28;20368;-85
2022/04/20 12:03:37;;;;;;;2.72;1.40;;;18.80;61.90;;;;;;5097639;28;20043;-85
2022/04/20 12:06:05;;;;;;;2.88;1.58;;;18.70;62.70;;;;;;5081340;28;20487;-86
2022/04/20 12:08:36;;;;;;;2.35;1.20;;;19.00;64.00;;;;;;5078330;28;20036;-84
2022/04/20 12:11:07;;;;;;;2.90;1.50;;;19.10;62.30;;;;;;5078095;28;20044;-85
2022/04/20 12:13:33;;;;;;;2.63;1.30;;;19.30;63.60;;;;;;5077831;28;20126;-84
2022/04/20 12:16:08;;;;;;;3.17;1.40;;;19.40;63.70;;;;;;5077766;28;20067;-84
2022/04/20 12:18:45;;;;;;;2.65;1.20;;;19.60;64.00;;;;;;5078209;28;20085;-84
2022/04/20 12:21:43;;;;;;;3.22;1.40;;;19.60;62.50;;;;;;5078616;28;20077;-84
2022/04/20 12:24:24;;;;;;;2.88;1.30;;;19.60;60.80;;;;;;5077846;28;20123;-86
2022/04/20 12:26:51;;;;;;;2.50;1.30;;;19.70;62.40;;;;;;5096245;28;20480;-85
2022/04/20 12:29:20;;;;;;;2.72;1.30;;;19.70;63.90;;;;;;5096024;28;20394;-83
2022/04/20 12:31:49;;;;;;;2.28;1.20;;;19.80;61.50;;;;;;5077886;28;20052;-86
2022/04/20 12:34:16;;;;;;;3.88;1.35;;;19.90;61.10;;;;;;5077940;28;20039;-87
2022/04/20 12:37:13;;;;;;;3.17;1.63;;;19.80;61.70;;;;;;5095905;28;20040;-84
2022/04/20 12:39:42;;;;;;;2.85;1.52;;;20.00;60.40;;;;;;5096158;28;20081;-85
2022/04/20 12:42:13;;;;;;;3.30;1.48;;;19.80;61.50;;;;;;5061251;28;20132;-85
2022/04/20 12:44:48;;;;;;;2.47;1.50;;;19.90;61.60;;;;;;5096280;28;20040;-84
2022/04/20 12:47:17;;;;;;;3.90;1.70;;;20.10;61.20;;;;;;5077766;28;20376;-84
2022/04/20 12:49:48;;;;;;;3.05;1.50;;;19.90;60.40;;;;;;5060749;28;20426;-84
2022/04/20 12:52:22;;;;;;;2.60;1.30;;;20.30;61.50;;;;;;5077236;28;20139;-84
2022/04/20 12:55:03;;;;;;;3.30;1.60;;;20.40;62.00;;;;;;5095505;28;20044;-84
2022/04/20 13:03:06;;;;;;;2.80;1.70;;;20.50;61.20;;;;;;5077266;28;20043;-84
2022/04/20 13:05:37;;;;;;;5.05;1.70;;;20.50;59.60;;;;;;5076935;28;20070;-84
2022/04/20 13:08:04;;;;;;;2.70;1.50;;;20.40;60.10;;;;;;5076975;28;20127;-85
2022/04/20 13:10:30;;;;;;;2.35;1.20;;;20.60;60.70;;;;;;5076738;28;20044;-84
2022/04/20 13:12:57;;;;;;;2.65;1.58;;;20.70;59.90;;;;;;5076774;28;20055;-87
2022/04/20 13:15:25;;;;;;;2.45;1.42;;;20.70;59.30;;;;;;5095361;28;20376;-85
2022/04/20 13:17:51;;;;;;;3.30;1.60;;;20.90;60.00;;;;;;5095167;28;20051;-88
2022/04/20 13:20:18;;;;;;;3.40;1.63;;;21.00;60.60;;;;;;5077088;28;20040;-88
2022/04/20 13:22:47;;;;;;;2.47;1.30;;;20.90;58.70;;;;;;5077018;28;20044;-89
2022/04/20 13:27:57;;;;;;;3.25;1.58;;;21.30;60.40;;;;;;5095105;28;20072;-88
2022/04/20 13:30:39;;;;;;;3.85;1.50;;;21.30;59.00;;;;;;5094979;28;20083;-88
2022/04/20 13:33:07;;;;;;;2.55;1.20;;;21.40;58.20;;;;;;5076732;28;20040;-89
2022/04/20 13:35:33;;;;;;;2.85;1.40;;;21.30;57.40;;;;;;5059786;28;20040;-89
2022/04/20 13:37:59;;;;;;;2.85;1.40;;;21.50;58.30;;;;;;5076283;28;20044;-89
2022/04/20 13:40:25;;;;;;;3.65;1.20;;;21.30;55.80;;;;;;5076880;28;20048;-88